Data for 05/27/2014

Time Sea-Level Adjusted Pressure Absolute Pressure Temperature Relative Humidity Dew Point   
(mb) (inHg) (mb) (inHg) (C) (F) (%) (C) (F)
00:05 1020 30.12 849 25.07 12.5 54.5 57 4.3 39.7
00:10 1020 30.12 849 25.07 12.3 54.1 58 4.4 39.8
00:15 1020 30.12 849 25.07 12.1 53.7 59 4.5 40
00:20 1020 30.12 849 25.07 11.9 53.4 59 4.3 39.7
00:25 1020 30.12 849 25.07 11.9 53.5 59 4.2 39.6
00:30 1020 30.12 849 25.07 12 53.6 58 4.1 39.4
00:35 1020 30.12 849 25.07 12.1 53.7 58 4.2 39.5
00:40 1020 30.12 849 25.07 12.1 53.8 58 4.1 39.4
00:45 1020 30.12 849 25.07 12.1 53.8 58 4.2 39.6
00:50 1020 30.12 849 25.07 12.1 53.7 59 4.3 39.7
00:55 1020 30.12 849 25.07 11.8 53.3 59 4.1 39.5
01:00 1020 30.12 849 25.07 11.8 53.2 59 4.1 39.4
01:05 1020 30.12 849 25.07 11.9 53.4 59 4.1 39.3
01:10 1020 30.12 849 25.07 11.9 53.3 59 4.2 39.6
01:15 1020 30.12 849 25.07 11.6 52.8 60 4.2 39.6
01:20 1020 30.12 849 25.07 11.6 52.8 59 3.9 39.1
01:25 1020 30.12 849 25.07 11.6 52.8 60 4.1 39.5
01:30 1020 30.12 849 25.07 11.3 52.4 61 4.1 39.3
01:35 1020 30.12 849 25.07 11.3 52.3 60 3.9 38.9
01:40 1020 30.12 849 25.07 11.3 52.3 60 3.9 39.1
01:45 1020 30.12 849 25.07 11.3 52.4 61 4.1 39.3
01:50 1020 30.12 849 25.07 11.3 52.3 60 3.9 39
01:55 1020 30.12 849 25.07 11.4 52.5 60 3.9 39.1
02:00 1020 30.12 850 25.1 11.4 52.5 60 4 39.1
02:05 1020 30.12 850 25.1 11.3 52.3 61 4 39.1
02:10 1020 30.12 850 25.1 10.8 51.5 64 4.4 40
02:15 1020 30.12 850 25.1 10.2 50.3 66 4.2 39.6
02:20 1020 30.12 850 25.1 9.9 49.8 67 4.1 39.4
02:25 1020 30.12 850 25.1 9.8 49.7 67 4 39.3
02:30 1020 30.12 850 25.1 9.8 49.6 67 4 39.2
02:35 1020 30.12 850 25.1 9.6 49.4 68 4.1 39.4
02:40 1020 30.12 850 25.1 9.5 49 68 4 39.2
02:45 1021 30.15 850 25.1 9.4 48.9 68 3.9 39
02:50 1021 30.15 850 25.1 9.6 49.2 67 3.8 38.8
02:55 1021 30.15 850 25.1 9.8 49.7 67 4 39.2
03:00 1021 30.15 850 25.1 9.9 49.7 67 4.1 39.4
03:05 1021 30.15 850 25.1 9.8 49.7 67 4 39.2
03:10 1021 30.15 850 25.1 9.8 49.7 67 4 39.1
03:15 1021 30.15 850 25.1 9.9 49.9 67 4.1 39.4
03:20 1021 30.15 850 25.1 9.8 49.7 67 4.1 39.3
03:25 1021 30.15 850 25.1 9.9 49.7 67 4.2 39.5
03:30 1021 30.15 850 25.1 9.8 49.7 67 4 39.3
03:35 1021 30.15 850 25.1 9.9 49.8 67 4 39.2
03:40 1021 30.15 850 25.1 10 50 66 4 39.1
03:45 1021 30.15 850 25.1 9.9 49.8 67 4 39.2
03:50 1021 30.15 850 25.1 9.9 49.8 66 3.8 38.9
03:55 1021 30.15 850 25.1 9.8 49.6 66 3.8 38.8
04:00 1021 30.15 850 25.1 9.8 49.6 66 3.8 38.8
04:05 1021 30.15 850 25.1 9.5 49 68 3.9 39.1
04:10 1021 30.15 850 25.1 9 48.1 69 3.7 38.7
04:15 1021 30.15 850 25.1 8.8 47.8 71 3.8 38.8
04:20 1021 30.15 850 25.1 8.6 47.4 71 3.7 38.7
04:25 1021 30.15 850 25.1 8.5 47.2 71 3.6 38.4
04:30 1021 30.15 850 25.1 8.5 47.2 71 3.5 38.4
04:35 1021 30.15 850 25.1 8.5 47.2 71 3.5 38.4
04:40 1021 30.15 850 25.1 8.4 47.1 71 3.4 38.1
04:45 1021 30.15 850 25.1 8.3 46.9 71 3.4 38.1
04:50 1021 30.15 850 25.1 8.2 46.7 72 3.4 38.2
04:55 1021 30.15 850 25.1 7.9 46.3 74 3.6 38.5
05:00 1021 30.15 850 25.1 7.7 45.9 75 3.5 38.3
05:05 1021 30.15 850 25.1 7.8 46 73 3.3 37.9
05:10 1021 30.15 851 25.13 8 46.3 73 3.4 38.1
05:15 1021 30.15 851 25.13 8 46.5 73 3.5 38.3
05:20 1021 30.15 851 25.13 8.2 46.7 72 3.4 38.1
05:25 1021 30.15 851 25.13 8.3 46.9 72 3.5 38.4
05:30 1021 30.15 851 25.13 8.2 46.8 72 3.5 38.2
05:35 1021 30.15 851 25.13 8.3 46.9 71 3.4 38.1
05:40 1021 30.15 851 25.13 8.4 47.2 71 3.5 38.4
05:45 1021 30.15 851 25.13 8.6 47.4 70 3.5 38.2
05:50 1021 30.15 851 25.13 8.7 47.6 70 3.6 38.4
05:55 1021 30.15 851 25.13 9 48.1 70 3.7 38.7
06:00 1021 30.15 851 25.13 9.3 48.7 68 3.8 38.8
06:05 1021 30.15 851 25.13 9.6 49.2 68 3.9 39
06:10 1021 30.15 851 25.13 9.9 49.8 66 3.8 38.9
06:15 1021 30.15 851 25.13 10 50.1 66 4.1 39.3
06:20 1021 30.15 851 25.13 10.2 50.3 66 4.1 39.4
06:25 1021 30.15 851 25.13 10.5 50.9 65 4.2 39.6
06:30 1021 30.15 851 25.13 10.9 51.6 64 4.3 39.8
06:35 1021 30.15 851 25.13 11.4 52.5 61 4.2 39.6
06:40 1021 30.15 851 25.13 11.8 53.2 59 4.1 39.4
06:45 1021 30.15 851 25.13 12.4 54.3 58 4.3 39.8
06:50 1021 30.15 851 25.13 12.9 55.3 55 4.3 39.7
06:55 1021 30.15 851 25.13 13.2 55.7 54 4.1 39.3
07:00 1022 30.18 851 25.13 13.7 56.6 53 4.4 40
07:05 1022 30.18 851 25.13 13.6 56.5 50 3.5 38.2
07:10 1022 30.18 851 25.13 13.6 56.4 50 3.4 38
07:15 1022 30.18 851 25.13 13.6 56.4 52 3.9 39
07:20 1022 30.18 851 25.13 13.2 55.8 52 3.7 38.7
07:25 1021 30.15 851 25.13 13.7 56.7 48 3.1 37.6
07:30 1021 30.15 851 25.13 13.9 57 50 3.6 38.5
07:35 1022 30.18 851 25.13 13.7 56.6 51 3.9 39
07:40 1022 30.18 851 25.13 13.8 56.9 50 3.7 38.7
07:45 1022 30.18 851 25.13 13.6 56.4 53 4.3 39.8
07:50 1022 30.18 851 25.13 13.9 56.9 52 4.3 39.8
07:55 1022 30.18 851 25.13 14 57.2 52 4.3 39.8
08:00 1022 30.18 851 25.13 14.5 58 50 4.4 39.8
08:05 1022 30.18 851 25.13 14.8 58.6 49 4.4 39.9
08:10 1021 30.15 851 25.13 14.8 58.7 48 3.9 39
08:15 1021 30.15 851 25.13 14.9 58.8 48 4.1 39.4
08:20 1021 30.15 851 25.13 15.3 59.5 46 3.7 38.6
08:25 1021 30.15 851 25.13 16.2 61.1 44 4 39.3
08:30 1021 30.15 851 25.13 15.7 60.3 47 4.5 40.1
08:35 1021 30.15 851 25.13 15.4 59.6 47 4.1 39.5
08:40 1021 30.15 851 25.13 15.6 60.1 47 4.4 39.9
08:45 1021 30.15 851 25.13 15.7 60.2 47 4.6 40.4
08:50 1021 30.15 851 25.13 15.4 59.7 47 4.3 39.8
08:55 1021 30.15 851 25.13 15.4 59.7 47 4.2 39.5
09:00 1021 30.15 850 25.1 15.7 60.2 47 4.4 40
09:05 1021 30.15 850 25.1 16 60.9 45 4.3 39.7
09:10 1021 30.15 850 25.1 16.4 61.5 46 4.8 40.6
09:15 1021 30.15 850 25.1 16.7 62.1 44 4.5 40.1
09:20 1021 30.15 850 25.1 16.7 62.1 43 4.2 39.5
09:25 1021 30.15 850 25.1 17.1 62.7 44 4.8 40.6
09:30 1021 30.15 850 25.1 16.9 62.5 44 4.9 40.8
09:35 1021 30.15 850 25.1 17 62.5 44 4.7 40.4
09:40 1021 30.15 850 25.1 17.1 62.8 43 4.4 40
09:45 1021 30.15 850 25.1 18.1 64.6 41 4.9 40.8
09:50 1020 30.12 850 25.1 18.2 64.7 41 4.7 40.4
09:55 1020 30.12 850 25.1 18.6 65.4 39 4.6 40.2
10:00 1020 30.12 849 25.07 18.5 65.3 41 5.2 41.4
10:05 1020 30.12 849 25.07 18.4 65.1 39 4.4 39.9
10:10 1020 30.12 849 25.07 19.3 66.7 39 5.2 41.4
10:15 1020 30.12 849 25.07 20.1 68.1 37 4.9 40.8
10:20 1020 30.12 849 25.07 20.1 68.2 39 5.7 42.3
10:25 1020 30.12 849 25.07 19.4 67 38 4.8 40.7
10:30 1020 30.12 849 25.07 19.6 67.3 40 5.8 42.4
10:35 1020 30.12 849 25.07 19.8 67.6 38 5.1 41.2
10:40 1020 30.12 849 25.07 19.6 67.3 42 6.5 43.6
10:45 1020 30.12 849 25.07 18.8 65.8 43 6 42.9
10:50 1019 30.09 849 25.07 18.6 65.5 42 5.6 42.1
10:55 1020 30.12 849 25.07 18.9 65.9 43 6 42.9
11:00 1020 30.12 849 25.07 19.8 67.6 40 6.1 43
11:05 1020 30.12 849 25.07 20.2 68.4 40 6.3 43.4
11:10 1019 30.09 849 25.07 20.2 68.4 39 6.1 42.9
11:15 1019 30.09 849 25.07 19.7 67.5 42 6.7 44.1
11:20 1019 30.09 849 25.07 19.2 66.6 40 5.4 41.8
11:25 1019 30.09 848 25.04 20.6 69.1 37 5.6 42
11:30 1019 30.09 848 25.04 20.9 69.7 40 7.1 44.8
11:35 1019 30.09 848 25.04 20.2 68.4 35 4.5 40
11:40 1019 30.09 848 25.04 21.1 69.9 34 4.6 40.4
11:45 1019 30.09 848 25.04 20.6 69.2 35 4.7 40.4
11:50 1019 30.09 848 25.04 20.7 69.3 34 4.4 39.9
11:55 1019 30.09 848 25.04 20.8 69.4 33 4 39.2
12:00 1019 30.09 848 25.04 20.6 69.2 35 4.7 40.4
12:05 1019 30.09 848 25.04 21.3 70.3 32 4.2 39.6
12:10 1019 30.09 848 25.04 20.9 69.7 34 4.6 40.3
12:15 1019 30.09 848 25.04 21 69.7 33 4.3 39.7
12:20 1019 30.09 848 25.04 21.2 70.2 35 5.4 41.8
12:25 1018 30.06 848 25.04 21.8 71.2 35 5.7 42.3
12:30 1018 30.06 848 25.04 22.2 72 33 5.2 41.4
12:35 1018 30.06 848 25.04 22.2 72 35 6.2 43.1
12:40 1018 30.06 848 25.04 22.4 72.4 34 5.9 42.6
12:45 1018 30.06 847 25.01 21.9 71.4 36 6.3 43.4
12:50 1018 30.06 847 25.01 21.9 71.4 36 6.4 43.5
12:55 1018 30.06 847 25.01 22.1 71.7 34 5.8 42.4
13:00 1018 30.06 847 25.01 21.5 70.7 37 6.2 43.2
13:05 1018 30.06 847 25.01 22.4 72.3 34 6.1 43
13:10 1018 30.06 847 25.01 22.9 73.1 34 6.3 43.3
13:15 1018 30.06 847 25.01 22.6 72.6 34 5.9 42.6
13:20 1018 30.06 847 25.01 23.2 73.8 33 6.1 43.1
13:25 1018 30.06 847 25.01 22.3 72.2 34 5.9 42.7
13:30 1018 30.06 847 25.01 22.7 72.9 33 6 42.8
13:35 1018 30.06 847 25.01 22.3 72.1 36 6.5 43.7
13:40 1018 30.06 847 25.01 21.5 70.7 36 5.9 42.7
13:45 1018 30.06 847 25.01 22.3 72.2 34 5.7 42.3
13:50 1018 30.06 847 25.01 23.2 73.8 33 6.3 43.3
13:55 1018 30.06 847 25.01 22.8 73 34 6.2 43.2
14:00 1018 30.06 847 25.01 22.5 72.6 33 5.7 42.2
14:05 1018 30.06 847 25.01 22.5 72.4 34 5.9 42.7
14:10 1018 30.06 847 25.01 22.2 72 33 5.5 41.9
14:15 1018 30.06 847 25.01 22.3 72.1 34 5.8 42.5
14:20 1017 30.03 847 25.01 22.3 72.1 35 6.2 43.1
14:25 1017 30.03 847 25.01 22.1 71.8 34 5.6 42
14:30 1017 30.03 847 25.01 22.4 72.2 33 5.6 42
14:35 1017 30.03 847 25.01 22 71.7 34 5.6 42.1
14:40 1017 30.03 846 24.98 21.8 71.3 35 5.7 42.3
14:45 1017 30.03 846 24.98 21.9 71.4 35 5.7 42.3
14:50 1017 30.03 846 24.98 21.6 70.9 36 6.2 43.1
14:55 1017 30.03 846 24.98 21.8 71.2 35 6 42.7
15:00 1017 30.03 846 24.98 21.8 71.2 36 6.2 43.2
15:05 1017 30.03 846 24.98 21.7 71 36 6 42.9
15:10 1017 30.03 846 24.98 21.8 71.3 36 6.4 43.6
15:15 1017 30.03 846 24.98 21.8 71.3 35 6 42.9
15:20 1017 30.03 846 24.98 21.7 71.1 36 6.3 43.4
15:25 1017 30.03 846 24.98 21.8 71.2 35 6 42.8
15:30 1017 30.03 846 24.98 21.8 71.2 35 5.9 42.6
15:35 1017 30.03 846 24.98 21.8 71.2 36 6.3 43.4
15:40 1017 30.03 846 24.98 21.5 70.6 36 5.8 42.5
15:45 1017 30.03 846 24.98 21.7 71 36 6 42.8
15:50 1017 30.03 846 24.98 21.8 71.2 36 6.1 43
15:55 1016 30 846 24.98 22 71.6 35 5.9 42.7
16:00 1017 30.03 846 24.98 21.9 71.3 35 5.9 42.6
16:05 1017 30.03 846 24.98 21.7 71 34 5.2 41.4
16:10 1016 30 846 24.98 21.6 71 34 5.4 41.7
16:15 1016 30 846 24.98 21.6 70.9 34 5.5 41.8
16:20 1016 30 846 24.98 21.9 71.3 33 5.3 41.5
16:25 1016 30 845 24.95 21.7 71.1 35 5.7 42.2
16:30 1016 30 845 24.95 21.2 70.2 35 5.4 41.7
16:35 1016 30 845 24.95 21.3 70.3 35 5.6 42
16:40 1016 30 845 24.95 21.5 70.7 34 5.2 41.4
16:45 1016 30 845 24.95 21.5 70.6 36 5.8 42.4
16:50 1016 30 845 24.95 21 69.9 37 5.9 42.6
16:55 1016 30 845 24.95 21.1 69.9 35 5.3 41.5
17:00 1016 30 845 24.95 20.8 69.5 35 4.9 40.8
17:05 1016 30 845 24.95 20.7 69.3 35 5 41.1
17:10 1016 30 845 24.95 20.8 69.4 37 5.6 42.2
17:15 1016 30 845 24.95 20.6 69 37 5.6 42
17:20 1015 29.97 845 24.95 20.2 68.4 39 6 42.7
17:25 1015 29.97 845 24.95 20.3 68.5 40 6.5 43.7
17:30 1015 29.97 845 24.95 20.1 68.2 42 6.9 44.4
17:35 1015 29.97 844 24.92 20 68 43 7.2 45
17:40 1015 29.97 844 24.92 19.9 67.8 43 7.2 44.9
17:45 1015 29.97 844 24.92 19.7 67.4 44 7.3 45.2
17:50 1015 29.97 844 24.92 19.4 66.9 45 7.4 45.4
17:55 1015 29.97 845 24.95 19.3 66.8 46 7.5 45.6
18:00 1015 29.97 844 24.92 19.4 66.8 46 7.6 45.7
18:05 1015 29.97 844 24.92 19.3 66.7 46 7.6 45.7
18:10 1015 29.97 844 24.92 19.2 66.6 46 7.6 45.7
18:15 1015 29.97 845 24.95 19.2 66.5 47 7.6 45.7
18:20 1015 29.97 845 24.95 19.1 66.4 47 7.8 46
18:25 1016 30 845 24.95 19.1 66.3 48 7.8 46
18:30 1016 30 845 24.95 19 66.2 48 7.8 46.1
18:35 1016 30 845 24.95 18.9 66 48 7.7 45.8
18:40 1016 30 845 24.95 18.9 66 48 7.7 45.9
18:45 1016 30 845 24.95 18.8 65.9 49 7.9 46.2
18:50 1016 30 845 24.95 18.7 65.7 49 7.9 46.2
18:55 1016 30 845 24.95 18.7 65.6 49 7.9 46.3
19:00 1016 30 845 24.95 18.6 65.5 49 8 46.3
19:05 1016 30 845 24.95 18.7 65.6 49 7.9 46.1
19:10 1016 30 845 24.95 18.7 65.7 49 7.8 46.1
19:15 1016 30 845 24.95 18.8 65.8 49 7.8 46.1
19:20 1016 30 846 24.98 18.7 65.7 49 8 46.4
19:25 1016 30 846 24.98 18.6 65.5 50 8 46.4
19:30 1016 30 846 24.98 18.7 65.6 50 8 46.4
19:35 1016 30 846 24.98 18.5 65.4 50 8.1 46.6
19:40 1016 30 845 24.95 18.4 65.1 50 8 46.5
19:45 1016 30 845 24.95 18.3 64.9 50 7.9 46.3
19:50 1016 30 845 24.95 18.2 64.7 51 8 46.5
19:55 1016 30 845 24.95 18 64.5 52 8.2 46.7
20:00 1016 30 845 24.95 17.9 64.2 53 8.3 46.9
20:05 1016 30 845 24.95 17.7 63.9 54 8.4 47.1
20:10 1016 30 845 24.95 17.5 63.6 55 8.4 47.1
20:15 1016 30 845 24.95 17.4 63.4 56 8.5 47.4
20:20 1016 30 845 24.95 17.2 62.9 57 8.7 47.6
20:25 1016 30 846 24.98 17 62.6 57 8.6 47.5
20:30 1016 30 845 24.95 17 62.5 58 8.7 47.6
20:35 1016 30 846 24.98 16.9 62.4 58 8.8 47.8
20:40 1016 30 846 24.98 16.8 62.3 59 8.8 47.9
20:45 1016 30 846 24.98 16.8 62.3 59 8.9 48.1
20:50 1017 30.03 846 24.98 16.9 62.4 59 9 48.3
20:55 1017 30.03 846 24.98 16.9 62.3 60 9.1 48.4
21:00 1017 30.03 846 24.98 16.9 62.3 60 9.2 48.5
21:05 1017 30.03 846 24.98 16.8 62.3 61 9.2 48.6
21:10 1017 30.03 846 24.98 16.7 62.1 61 9.3 48.7
21:15 1017 30.03 846 24.98 16.7 62 61 9.3 48.7
21:20 1017 30.03 846 24.98 16.7 62 62 9.4 48.9
21:25 1017 30.03 846 24.98 16.5 61.8 62 9.4 48.8
21:30 1017 30.03 846 24.98 16.4 61.6 63 9.4 48.9
21:35 1017 30.03 846 24.98 16.4 61.4 63 9.4 49
21:40 1017 30.03 846 24.98 16.2 61.2 64 9.4 48.9
21:45 1017 30.03 846 24.98 16.3 61.3 64 9.4 48.9
21:50 1017 30.03 846 24.98 16.2 61.1 64 9.5 49.2
21:55 1017 30.03 846 24.98 16.1 61 65 9.5 49.1
22:00 1017 30.03 847 25.01 16.1 60.9 65 9.6 49.2
22:05 1017 30.03 846 24.98 16 60.9 65 9.6 49.3
22:10 1017 30.03 846 24.98 16 60.8 66 9.7 49.5
22:15 1017 30.03 846 24.98 15.9 60.6 66 9.7 49.5
22:20 1017 30.03 846 24.98 16 60.7 66 9.7 49.4
22:25 1017 30.03 846 24.98 15.9 60.6 67 9.8 49.6
22:30 1017 30.03 846 24.98 15.8 60.5 67 9.8 49.6
22:35 1017 30.03 846 24.98 15.8 60.5 67 9.8 49.6
22:40 1017 30.03 846 24.98 15.6 60.2 68 9.9 49.7
22:45 1017 30.03 846 24.98 15.5 59.9 68 9.7 49.5
22:50 1017 30.03 846 24.98 15.4 59.6 68 9.6 49.3
22:55 1017 30.03 846 24.98 15 59 70 9.6 49.3
23:00 1017 30.03 846 24.98 15 59.1 70 9.7 49.4
23:05 1017 30.03 846 24.98 15.1 59.2 70 9.7 49.5
23:10 1017 30.03 846 24.98 15.1 59.2 70 9.7 49.5
23:15 1017 30.03 846 24.98 15.1 59.2 70 9.8 49.6
23:20 1017 30.03 846 24.98 14.9 58.7 71 9.7 49.4
23:25 1017 30.03 846 24.98 14.3 57.8 72 9.3 48.7
23:30 1017 30.03 846 24.98 13.6 56.4 74 9 48.2
23:35 1017 30.03 846 24.98 12.9 55.2 73 8.2 46.8
23:40 1017 30.03 846 24.98 12.8 55 76 8.8 47.8
23:45 1017 30.03 846 24.98 13.3 56 74 8.8 47.8
23:50 1017 30.03 846 24.98 14 57.2 73 9.3 48.7
23:55 1017 30.03 846 24.98 14.3 57.8 72 9.4 48.9
24:00 1017 30.03 846 24.98 14.6 58.3 72 9.6 49.3